Time;durP1;ratioP1;P1;durP2;ratioP2;P2;SDS_P1;SDS_P2;PMS_P1;PMS_P2;Temp;Humidity;BMP_temperature;BMP_pressure;BME280_temperature;BME280_humidity;BME280_pressure;Samples;Min_cycle;Max_cycle;Signal;HPM_P1;HPM_P2
2024/01/31 00:00:41;;;;;;;;;;;21.70;31.90;;;;;;5074513;28;19934;-50
2024/01/31 00:03:08;;;;;;;;;;;21.60;31.80;;;;;;5074165;28;20374;-51
2024/01/31 00:05:35;;;;;;;;;;;21.60;31.80;;;;;;5074255;28;19960;-50
2024/01/31 00:08:02;;;;;;;;;;;21.70;31.80;;;;;;5074070;28;19928;-49
2024/01/31 00:10:29;;;;;;;;;;;21.60;31.70;;;;;;5074488;28;20019;-50
2024/01/31 00:12:56;;;;;;;;;;;21.60;31.60;;;;;;5074435;28;19925;-48
2024/01/31 00:15:23;;;;;;;;;;;21.60;31.60;;;;;;5073904;28;19924;-50
2024/01/31 00:17:51;;;;;;;;;;;21.60;31.70;;;;;;5074232;28;19924;-50
2024/01/31 00:20:18;;;;;;;;;;;21.60;31.70;;;;;;5074090;28;19925;-52
2024/01/31 00:22:45;;;;;;;;;;;21.60;31.70;;;;;;5073887;28;19931;-51
2024/01/31 00:25:12;;;;;;;;;;;21.60;31.70;;;;;;5073927;28;20015;-52
2024/01/31 00:27:39;;;;;;;;;;;21.60;31.70;;;;;;5074079;28;19925;-53
2024/01/31 00:30:06;;;;;;;;;;;21.60;31.80;;;;;;5074004;28;20374;-50
2024/01/31 00:32:33;;;;;;;;;;;21.60;31.70;;;;;;5074119;28;20278;-52
2024/01/31 00:35:00;;;;;;;;;;;21.60;31.70;;;;;;5073837;28;20334;-50
2024/01/31 00:37:27;;;;;;;;;;;21.60;31.70;;;;;;5073851;28;19974;-47
2024/01/31 00:39:54;;;;;;;;;;;21.60;31.70;;;;;;5073828;28;19925;-47
2024/01/31 00:42:21;;;;;;;;;;;21.60;31.60;;;;;;5073363;28;19924;-50
2024/01/31 00:44:48;;;;;;;;;;;21.60;31.60;;;;;;5073650;28;19978;-52
2024/01/31 00:47:15;;;;;;;;;;;21.60;31.60;;;;;;5073144;28;19924;-50
2024/01/31 00:49:42;;;;;;;;;;;21.60;31.60;;;;;;5073472;28;19929;-49
2024/01/31 00:52:09;;;;;;;;;;;21.60;31.60;;;;;;5073420;28;19932;-53
2024/01/31 00:54:36;;;;;;;;;;;21.60;31.60;;;;;;5073379;28;19928;-52
2024/01/31 00:57:02;;;;;;;;;;;21.60;31.50;;;;;;5073641;28;20360;-50
2024/01/31 00:59:29;;;;;;;;;;;21.60;31.50;;;;;;5054977;28;20015;-51
2024/01/31 01:01:56;;;;;;;;;;;21.60;31.50;;;;;;5072908;28;19931;-52
2024/01/31 01:04:23;;;;;;;;;;;21.60;31.50;;;;;;5073273;28;20370;-53
2024/01/31 01:06:50;;;;;;;;;;;21.60;31.40;;;;;;5073485;28;19930;-53
2024/01/31 01:09:17;;;;;;;;;;;21.50;31.40;;;;;;5073071;28;19931;-50
2024/01/31 01:11:44;;;;;;;;;;;21.50;31.40;;;;;;5073135;28;20271;-52
2024/01/31 01:14:11;;;;;;;;;;;21.50;31.40;;;;;;5073247;28;20028;-54
2024/01/31 01:16:38;;;;;;;;;;;21.50;31.80;;;;;;5072743;28;20389;-51
2024/01/31 01:19:05;;;;;;;;;;;21.50;31.30;;;;;;5073351;28;20404;-57
2024/01/31 01:21:32;;;;;;;;;;;21.50;31.30;;;;;;5073026;28;20266;-54
2024/01/31 01:23:59;;;;;;;;;;;21.50;31.40;;;;;;5073171;28;19931;-52
2024/01/31 01:26:26;;;;;;;;;;;21.50;31.40;;;;;;5072905;28;19925;-58
2024/01/31 01:28:53;;;;;;;;;;;21.50;31.30;;;;;;5073015;28;19946;-63
2024/01/31 01:31:20;;;;;;;;;;;21.40;31.30;;;;;;5072873;28;20369;-54
2024/01/31 01:33:47;;;;;;;;;;;21.50;31.40;;;;;;5073063;28;19924;-59
2024/01/31 01:36:14;;;;;;;;;;;21.40;31.40;;;;;;5072818;28;19974;-54
2024/01/31 01:38:41;;;;;;;;;;;21.40;31.40;;;;;;5055453;28;19939;-45
2024/01/31 01:41:08;;;;;;;;;;;21.40;31.40;;;;;;5073210;28;20019;-50
2024/01/31 01:43:35;;;;;;;;;;;21.40;31.40;;;;;;5072651;28;19925;-46
2024/01/31 01:46:12;;;;;;;;;;;21.40;31.40;;;;;;5072808;28;20030;-47
2024/01/31 01:48:40;;;;;;;;;;;21.40;31.30;;;;;;5072204;28;19968;-48
2024/01/31 01:51:07;;;;;;;;;;;21.40;31.30;;;;;;5072861;28;19924;-45
2024/01/31 01:53:36;;;;;;;;;;;21.40;31.30;;;;;;5072492;28;20452;-46
2024/01/31 01:56:04;;;;;;;;;;;21.40;31.30;;;;;;5073101;28;20073;-45
2024/01/31 01:58:32;;;;;;;;;;;21.40;31.30;;;;;;5072991;28;19978;-45
2024/01/31 02:01:00;;;;;;;;;;;21.40;31.20;;;;;;5073083;28;19931;-49
2024/01/31 02:03:28;;;;;;;;;;;21.40;31.20;;;;;;5072103;28;20370;-46
2024/01/31 02:05:59;;;;;;;;;;;21.40;31.20;;;;;;5072169;28;19924;-47
2024/01/31 02:08:27;;;;;;;;;;;21.40;31.20;;;;;;5072457;28;20003;-47
2024/01/31 02:10:54;;;;;;;;;;;21.40;31.20;;;;;;5073235;28;19964;-46
2024/01/31 02:13:21;;;;;;;;;;;21.40;31.20;;;;;;5076708;28;20025;-51
2024/01/31 02:15:52;;;;;;;;;;;21.40;31.20;;;;;;5076626;28;20423;-46
2024/01/31 02:18:20;;;;;;;;;;;21.40;31.70;;;;;;5058980;28;19975;-47
2024/01/31 02:20:48;;;;;;;;;;;21.40;31.20;;;;;;5076350;28;20011;-46
2024/01/31 02:23:15;;;;;;;;;;;21.40;31.10;;;;;;5075955;28;20003;-49
2024/01/31 02:25:42;;;;;;;;;;;21.40;31.10;;;;;;5058662;28;19928;-49
2024/01/31 02:28:09;;;;;;;;;;;21.40;31.00;;;;;;5076252;28;19928;-45
2024/01/31 02:30:36;;;;;;;;;;;21.40;31.10;;;;;;5076344;28;20022;-46
2024/01/31 02:33:03;;;;;;;;;;;21.40;31.10;;;;;;5076109;28;20019;-49
2024/01/31 02:35:34;;;;;;;;;;;21.40;31.10;;;;;;5076224;28;19925;-45
2024/01/31 02:38:01;;;;;;;;;;;21.30;31.10;;;;;;5075998;28;19932;-50
2024/01/31 02:40:31;;;;;;;;;;;21.30;31.70;;;;;;5076296;28;19962;-52
2024/01/31 02:42:59;;;;;;;;;;;21.30;31.20;;;;;;5075937;28;19925;-49
2024/01/31 02:45:29;;;;;;;;;;;21.30;31.20;;;;;;5075666;28;19970;-51
2024/01/31 02:47:56;;;;;;;;;;;21.30;31.20;;;;;;5075853;28;19960;-45
2024/01/31 02:50:25;;;;;;;;;;;21.30;31.20;;;;;;5075906;28;20019;-45
2024/01/31 02:52:52;;;;;;;;;;;21.30;31.20;;;;;;5075971;28;19960;-47
2024/01/31 02:55:19;;;;;;;;;;;21.30;31.10;;;;;;5057660;28;19925;-46
2024/01/31 02:57:46;;;;;;;;;;;21.40;31.10;;;;;;5076214;28;19955;-46
2024/01/31 03:00:13;;;;;;;;;;;21.30;31.10;;;;;;5075900;28;19932;-45
2024/01/31 03:02:43;;;;;;;;;;;21.30;31.10;;;;;;5076029;28;19951;-45
2024/01/31 03:05:14;;;;;;;;;;;21.30;31.00;;;;;;5075175;28;19933;-47
2024/01/31 03:07:41;;;;;;;;;;;21.30;31.00;;;;;;5076017;28;19928;-47
2024/01/31 03:10:09;;;;;;;;;;;21.30;31.00;;;;;;5075145;28;19924;-47
2024/01/31 03:12:37;;;;;;;;;;;21.30;31.00;;;;;;5075480;28;19928;-45
2024/01/31 03:15:04;;;;;;;;;;;21.30;31.00;;;;;;5075295;28;20022;-46
2024/01/31 03:17:35;;;;;;;;;;;21.30;31.00;;;;;;5075394;28;19924;-48
2024/01/31 03:20:03;;;;;;;;;;;21.30;31.00;;;;;;5075196;28;19928;-45
2024/01/31 03:22:31;;;;;;;;;;;21.30;31.00;;;;;;5074239;28;20397;-45
2024/01/31 03:24:58;;;;;;;;;;;21.30;31.00;;;;;;5074591;28;19925;-47
2024/01/31 03:27:25;;;;;;;;;;;21.30;31.00;;;;;;5075420;28;19924;-47
2024/01/31 03:29:52;;;;;;;;;;;21.30;31.00;;;;;;5074745;28;19924;-46
2024/01/31 03:32:19;;;;;;;;;;;21.30;30.80;;;;;;5075449;28;19932;-46
2024/01/31 03:34:46;;;;;;;;;;;21.20;30.80;;;;;;5074962;28;20381;-46
2024/01/31 03:37:13;;;;;;;;;;;21.20;30.90;;;;;;5074852;28;20458;-47
2024/01/31 03:39:40;;;;;;;;;;;21.20;30.90;;;;;;5075333;28;19928;-47
2024/01/31 03:42:07;;;;;;;;;;;21.20;30.90;;;;;;5075473;28;20394;-46
2024/01/31 03:44:34;;;;;;;;;;;21.20;30.90;;;;;;5073208;28;19928;-45
2024/01/31 03:47:00;;;;;;;;;;;21.20;30.90;;;;;;5074805;28;19928;-45
2024/01/31 03:49:27;;;;;;;;;;;21.20;31.00;;;;;;5074651;28;19960;-48
2024/01/31 03:51:54;;;;;;;;;;;21.20;31.00;;;;;;5074890;28;19924;-45
2024/01/31 03:54:21;;;;;;;;;;;21.20;31.00;;;;;;5074828;28;19999;-45
2024/01/31 03:56:48;;;;;;;;;;;21.20;31.10;;;;;;5074605;28;19925;-46
2024/01/31 03:59:15;;;;;;;;;;;21.20;31.00;;;;;;5074657;28;20373;-45
2024/01/31 04:01:42;;;;;;;;;;;21.20;31.00;;;;;;5074695;28;20019;-48
2024/01/31 04:04:09;;;;;;;;;;;21.20;30.90;;;;;;5074032;28;19924;-45
2024/01/31 04:06:36;;;;;;;;;;;21.20;30.90;;;;;;5074175;28;20381;-45
2024/01/31 04:09:05;;;;;;;;;;;21.20;30.90;;;;;;5074308;28;19928;-53
2024/01/31 04:11:34;;;;;;;;;;;21.20;30.80;;;;;;5074392;28;20383;-53
2024/01/31 04:14:02;;;;;;;;;;;21.20;30.80;;;;;;5074279;28;19938;-46
2024/01/31 04:16:29;;;;;;;;;;;21.20;31.40;;;;;;5074212;28;19924;-45
2024/01/31 04:18:56;;;;;;;;;;;21.20;30.80;;;;;;5074311;28;19924;-48
2024/01/31 04:21:24;;;;;;;;;;;21.20;30.80;;;;;;5073851;28;19925;-47
2024/01/31 04:23:51;;;;;;;;;;;21.20;30.70;;;;;;5073643;28;20015;-46
2024/01/31 04:26:17;;;;;;;;;;;21.20;30.70;;;;;;5073746;28;20389;-45
2024/01/31 04:28:45;;;;;;;;;;;21.20;30.70;;;;;;5056250;28;19932;-47
2024/01/31 04:31:15;;;;;;;;;;;21.20;30.70;;;;;;5074213;28;19925;-47
2024/01/31 04:33:42;;;;;;;;;;;21.20;30.70;;;;;;5074040;28;19964;-48
2024/01/31 04:36:10;;;;;;;;;;;21.20;30.70;;;;;;5071294;28;19972;-45
2024/01/31 04:38:37;;;;;;;;;;;21.20;30.70;;;;;;5071207;28;19928;-45
2024/01/31 04:41:04;;;;;;;;;;;21.20;30.30;;;;;;5072299;28;19977;-48
2024/01/31 04:43:31;;;;;;;;;;;21.10;30.10;;;;;;5073308;28;19968;-48
2024/01/31 04:45:58;;;;;;;;;;;21.10;30.00;;;;;;5072539;28;20019;-49
2024/01/31 04:48:25;;;;;;;;;;;21.10;29.90;;;;;;5073507;28;19928;-45
2024/01/31 04:50:52;;;;;;;;;;;21.10;29.90;;;;;;5073745;28;19925;-47
2024/01/31 04:53:19;;;;;;;;;;;21.00;30.00;;;;;;5073190;28;19928;-46
2024/01/31 04:55:46;;;;;;;;;;;21.00;29.90;;;;;;5073193;28;20404;-45
2024/01/31 04:58:13;;;;;;;;;;;21.00;29.90;;;;;;5072884;28;19939;-46
2024/01/31 05:00:41;;;;;;;;;;;21.00;29.90;;;;;;5073742;28;20447;-48
2024/01/31 05:03:08;;;;;;;;;;;20.90;30.30;;;;;;5073726;28;19924;-46
2024/01/31 05:05:36;;;;;;;;;;;21.00;30.00;;;;;;5072888;28;20397;-48
2024/01/31 05:08:03;;;;;;;;;;;20.90;29.90;;;;;;5073255;28;20316;-48
2024/01/31 05:10:32;;;;;;;;;;;20.90;29.90;;;;;;5073095;28;19924;-45
2024/01/31 05:12:59;;;;;;;;;;;20.90;29.90;;;;;;5072416;28;19947;-50
2024/01/31 05:15:26;;;;;;;;;;;20.90;29.90;;;;;;5073185;28;19925;-45
2024/01/31 05:17:53;;;;;;;;;;;20.90;29.90;;;;;;5073420;28;20027;-48
2024/01/31 05:20:20;;;;;;;;;;;20.90;29.90;;;;;;5073090;28;19924;-48
2024/01/31 05:22:47;;;;;;;;;;;20.90;29.90;;;;;;5067233;28;19971;-48
2024/01/31 05:25:14;;;;;;;;;;;21.00;30.00;;;;;;5052355;28;20306;-48
2024/01/31 05:27:41;;;;;;;;;;;21.00;30.00;;;;;;5067377;28;19955;-47
2024/01/31 05:30:08;;;;;;;;;;;21.00;30.00;;;;;;5072717;28;19968;-45
2024/01/31 05:32:35;;;;;;;;;;;21.00;30.00;;;;;;5072572;28;19932;-45
2024/01/31 05:35:03;;;;;;;;;;;21.10;30.00;;;;;;5072668;28;19925;-49
2024/01/31 05:37:30;;;;;;;;;;;21.10;30.00;;;;;;5072913;28;19925;-45
2024/01/31 05:39:57;;;;;;;;;;;21.10;29.90;;;;;;5072555;28;19924;-49
2024/01/31 05:42:24;;;;;;;;;;;21.10;29.90;;;;;;5073071;28;19986;-53
2024/01/31 05:44:53;;;;;;;;;;;21.20;30.00;;;;;;5070353;28;20285;-53
2024/01/31 05:47:20;;;;;;;;;;;21.20;29.90;;;;;;5072258;28;19931;-47
2024/01/31 05:49:47;;;;;;;;;;;21.20;29.90;;;;;;5072109;28;19971;-46
2024/01/31 05:52:15;;;;;;;;;;;21.30;29.90;;;;;;5072382;28;19925;-51
2024/01/31 05:54:42;;;;;;;;;;;21.30;29.90;;;;;;5072593;28;20340;-47
2024/01/31 05:57:09;;;;;;;;;;;21.30;29.80;;;;;;5072352;28;19932;-48
2024/01/31 05:59:40;;;;;;;;;;;21.30;29.70;;;;;;5054997;28;20301;-50
2024/01/31 06:02:07;;;;;;;;;;;21.30;29.70;;;;;;5071889;28;19960;-45
2024/01/31 06:04:34;;;;;;;;;;;21.30;29.70;;;;;;5071477;28;20023;-48
2024/01/31 06:07:02;;;;;;;;;;;21.30;29.80;;;;;;5071776;28;19931;-47
2024/01/31 06:09:30;;;;;;;;;;;21.30;29.90;;;;;;5069415;28;20381;-47
2024/01/31 06:11:56;;;;;;;;;;;21.30;30.00;;;;;;5070712;28;19924;-45
2024/01/31 06:14:23;;;;;;;;;;;21.40;30.30;;;;;;5072374;28;19925;-49
2024/01/31 06:16:50;;;;;;;;;;;21.50;30.40;;;;;;5071120;28;19925;-48
2024/01/31 06:19:17;;;;;;;;;;;21.50;30.50;;;;;;5071395;28;19931;-46
2024/01/31 06:21:44;;;;;;;;;;;21.50;30.50;;;;;;5070560;28;19947;-51
2024/01/31 06:24:11;;;;;;;;;;;21.60;30.60;;;;;;5068591;28;20046;-50
2024/01/31 06:26:39;;;;;;;;;;;21.60;30.40;;;;;;5066488;28;20373;-54
2024/01/31 06:29:06;;;;;;;;;;;21.70;30.50;;;;;;5067942;28;20444;-48
2024/01/31 06:31:40;;;;;;;;;;;21.70;30.60;;;;;;5061139;28;19932;-56
2024/01/31 06:34:07;;;;;;;;;;;21.70;30.70;;;;;;5062145;28;19940;-50
2024/01/31 06:36:34;;;;;;;;;;;21.80;30.80;;;;;;5059657;28;19928;-51
2024/01/31 06:39:01;;;;;;;;;;;21.80;30.80;;;;;;5061005;28;20369;-52
2024/01/31 06:41:28;;;;;;;;;;;21.80;30.90;;;;;;5059828;28;20814;-52
2024/01/31 06:43:55;;;;;;;;;;;21.80;30.80;;;;;;5066094;28;20015;-54
2024/01/31 06:46:22;;;;;;;;;;;21.80;30.70;;;;;;5058618;28;19963;-54
2024/01/31 06:48:49;;;;;;;;;;;21.90;30.40;;;;;;5058705;28;19969;-52
2024/01/31 06:51:16;;;;;;;;;;;21.90;30.00;;;;;;5054089;28;19925;-52
2024/01/31 06:53:44;;;;;;;;;;;21.90;29.80;;;;;;5046032;28;20020;-49
2024/01/31 06:56:16;;;;;;;;;;;21.90;29.70;;;;;;5064681;28;20002;-51
2024/01/31 06:58:44;;;;;;;;;;;22.00;29.90;;;;;;5069382;28;20024;-53
2024/01/31 07:01:18;;;;;;;;;;;22.00;30.00;;;;;;5069397;28;20513;-50
2024/01/31 07:03:45;;;;;;;;;;;22.00;30.00;;;;;;5068472;28;20032;-56
2024/01/31 07:06:13;;;;;;;;;;;22.10;29.80;;;;;;5064672;28;19925;-55
2024/01/31 07:08:40;;;;;;;;;;;22.10;29.90;;;;;;5060579;28;19928;-52
2024/01/31 07:11:08;;;;;;;;;;;22.10;30.00;;;;;;5067304;28;19924;-56
2024/01/31 07:13:35;;;;;;;;;;;22.20;30.10;;;;;;5071256;28;20441;-55
2024/01/31 07:16:03;;;;;;;;;;;22.20;30.20;;;;;;5067454;28;19924;-55
2024/01/31 07:18:30;;;;;;;;;;;22.30;30.30;;;;;;5067218;28;19925;-56
2024/01/31 07:20:57;;;;;;;;;;;22.30;30.40;;;;;;5063419;28;19931;-55
2024/01/31 07:23:24;;;;;;;;;;;22.40;30.40;;;;;;5070773;28;19924;-53
2024/01/31 07:25:51;;;;;;;;;;;22.40;30.50;;;;;;5062853;28;20421;-56
2024/01/31 07:28:20;;;;;;;;;;;22.40;30.40;;;;;;5067930;28;19940;-55
2024/01/31 07:30:47;;;;;;;;;;;22.40;30.30;;;;;;5061637;28;20046;-52
2024/01/31 07:33:14;;;;;;;;;;;22.40;30.20;;;;;;5061771;28;20008;-53
2024/01/31 07:35:42;;;;;;;;;;;22.50;30.30;;;;;;5057107;28;20028;-52
2024/01/31 07:38:09;;;;;;;;;;;22.50;30.40;;;;;;5065041;28;19933;-55
2024/01/31 07:40:38;;;;;;;;;;;22.50;30.10;;;;;;5069574;28;20007;-53
2024/01/31 07:43:05;;;;;;;;;;;22.50;30.00;;;;;;5068506;28;20019;-57
2024/01/31 07:45:32;;;;;;;;;;;22.50;30.00;;;;;;5065010;28;19929;-55
2024/01/31 07:47:59;;;;;;;;;;;22.50;29.90;;;;;;5068717;28;20423;-56
2024/01/31 07:50:26;;;;;;;;;;;22.50;29.80;;;;;;5050092;28;19978;-55
2024/01/31 07:52:58;;;;;;;;;;;22.50;29.80;;;;;;5050848;28;19928;-55
2024/01/31 07:55:25;;;;;;;;;;;22.50;29.80;;;;;;5069074;28;19975;-58
2024/01/31 07:57:51;;;;;;;;;;;22.60;29.90;;;;;;5064234;28;19925;-55
2024/01/31 08:00:19;;;;;;;;;;;22.60;29.90;;;;;;5064322;28;20344;-54
2024/01/31 08:02:48;;;;;;;;;;;22.60;29.90;;;;;;5062860;28;20277;-56
2024/01/31 08:05:15;;;;;;;;;;;22.60;29.90;;;;;;5064657;28;19932;-57
2024/01/31 08:07:42;;;;;;;;;;;22.60;29.80;;;;;;5059043;28;20361;-56
2024/01/31 08:10:10;;;;;;;;;;;22.70;29.80;;;;;;5060998;28;20484;-56
2024/01/31 08:12:37;;;;;;;;;;;22.70;29.70;;;;;;5060237;28;20296;-57
2024/01/31 08:15:05;;;;;;;;;;;22.70;30.00;;;;;;5044041;28;20039;-53
2024/01/31 08:17:31;;;;;;;;;;;22.70;30.10;;;;;;5062305;28;20374;-49
2024/01/31 08:19:58;;;;;;;;;;;22.80;30.40;;;;;;5042203;28;20311;-57
2024/01/31 08:22:26;;;;;;;;;;;22.80;30.60;;;;;;5063444;28;19928;-52
2024/01/31 08:24:53;;;;;;;;;;;22.90;30.80;;;;;;5064269;28;20011;-51
2024/01/31 08:27:20;;;;;;;;;;;23.00;30.80;;;;;;5058289;28;19929;-53
2024/01/31 08:29:50;;;;;;;;;;;23.10;30.70;;;;;;5065790;28;20293;-54
2024/01/31 08:32:16;;;;;;;;;;;23.10;30.40;;;;;;5065916;28;19986;-50
2024/01/31 08:34:44;;;;;;;;;;;23.20;30.20;;;;;;5062680;28;19925;-52
2024/01/31 08:37:11;;;;;;;;;;;23.20;30.00;;;;;;5041414;28;20613;-52
2024/01/31 08:39:38;;;;;;;;;;;23.30;30.00;;;;;;5059778;28;19931;-53
2024/01/31 08:42:05;;;;;;;;;;;23.30;29.90;;;;;;5064674;28;19924;-49
2024/01/31 08:44:33;;;;;;;;;;;23.30;30.00;;;;;;5060278;28;20026;-52
2024/01/31 08:47:00;;;;;;;;;;;23.30;30.00;;;;;;5066431;28;19932;-53
2024/01/31 08:49:44;;;;;;;;;;;23.40;30.10;;;;;;5063883;28;20649;-53
2024/01/31 08:52:11;;;;;;;;;;;23.40;30.20;;;;;;5063528;28;19975;-54
2024/01/31 08:54:38;;;;;;;;;;;23.40;30.20;;;;;;5063009;28;20011;-56
2024/01/31 08:57:08;;;;;;;;;;;23.40;30.30;;;;;;5060706;28;19940;-54
2024/01/31 08:59:35;;;;;;;;;;;23.50;30.30;;;;;;5061685;28;19933;-53
2024/01/31 09:02:03;;;;;;;;;;;23.50;30.40;;;;;;5060469;28;20374;-53
2024/01/31 09:04:30;;;;;;;;;;;23.60;30.50;;;;;;5064428;28;19928;-54
2024/01/31 09:06:57;;;;;;;;;;;23.60;30.60;;;;;;5064600;28;19928;-49
2024/01/31 09:09:25;;;;;;;;;;;23.60;30.60;;;;;;5064315;28;20003;-51
2024/01/31 09:11:51;;;;;;;;;;;23.60;30.60;;;;;;5062931;28;19947;-52
2024/01/31 09:14:18;;;;;;;;;;;23.70;30.60;;;;;;5061245;28;19933;-52
2024/01/31 09:16:46;;;;;;;;;;;23.70;30.60;;;;;;5066152;28;19928;-51
2024/01/31 09:19:13;;;;;;;;;;;23.70;30.50;;;;;;5067856;28;19924;-53
2024/01/31 09:21:40;;;;;;;;;;;23.70;30.50;;;;;;5066532;28;20089;-53
2024/01/31 09:24:09;;;;;;;;;;;23.80;30.60;;;;;;5064798;28;19924;-49
2024/01/31 09:26:36;;;;;;;;;;;23.80;30.60;;;;;;5063282;28;20503;-51
2024/01/31 09:29:03;;;;;;;;;;;23.80;30.50;;;;;;5062054;28;19925;-52
2024/01/31 09:31:30;;;;;;;;;;;23.80;30.40;;;;;;5062453;28;19929;-51
2024/01/31 09:33:58;;;;;;;;;;;23.80;30.40;;;;;;5065556;28;19940;-53
2024/01/31 09:36:26;;;;;;;;;;;23.80;30.40;;;;;;5063554;28;19951;-58
2024/01/31 09:38:53;;;;;;;;;;;23.90;30.50;;;;;;5062376;28;19924;-54
2024/01/31 09:41:20;;;;;;;;;;;23.90;30.40;;;;;;5048670;28;20331;-52
2024/01/31 09:43:47;;;;;;;;;;;23.90;30.30;;;;;;5058972;28;20385;-57
2024/01/31 09:46:15;;;;;;;;;;;23.90;30.30;;;;;;5065399;28;20014;-63
2024/01/31 09:48:43;;;;;;;;;;;23.90;30.30;;;;;;5061880;28;20389;-56
2024/01/31 09:51:10;;;;;;;;;;;23.90;30.20;;;;;;5063814;28;20309;-61
2024/01/31 09:53:37;;;;;;;;;;;23.90;30.10;;;;;;5060147;28;20357;-60
2024/01/31 09:56:05;;;;;;;;;;;23.90;30.10;;;;;;5059423;28;19928;-60
2024/01/31 09:58:32;;;;;;;;;;;23.90;30.10;;;;;;5060691;28;19928;-53
2024/01/31 10:01:03;;;;;;;;;;;23.90;30.10;;;;;;5062925;28;19956;-65
2024/01/31 10:03:40;;;;;;;;;;;23.90;30.00;;;;;;5064013;28;19933;-49
2024/01/31 10:06:07;;;;;;;;;;;23.90;30.00;;;;;;5047464;28;19932;-50
2024/01/31 10:08:38;;;;;;;;;;;23.90;30.00;;;;;;5062473;28;19929;-49
2024/01/31 10:11:06;;;;;;;;;;;23.90;29.90;;;;;;5064562;28;20381;-50
2024/01/31 10:13:33;;;;;;;;;;;23.90;29.90;;;;;;5064792;28;19933;-51
2024/01/31 10:16:00;;;;;;;;;;;23.90;29.80;;;;;;5062005;28;19924;-53
2024/01/31 10:18:28;;;;;;;;;;;23.90;29.70;;;;;;5060688;28;19928;-51
2024/01/31 10:20:57;;;;;;;;;;;23.90;29.70;;;;;;5059882;28;19932;-48
2024/01/31 10:23:25;;;;;;;;;;;23.90;29.70;;;;;;5049005;28;19936;-53
2024/01/31 10:25:53;;;;;;;;;;;23.90;29.60;;;;;;5058084;28;20317;-50
2024/01/31 10:28:21;;;;;;;;;;;23.90;30.20;;;;;;5063339;28;19932;-52
2024/01/31 10:30:48;;;;;;;;;;;23.90;29.80;;;;;;5060377;28;19936;-51
2024/01/31 10:33:15;;;;;;;;;;;24.00;29.80;;;;;;5063650;28;19940;-46
2024/01/31 10:35:43;;;;;;;;;;;24.00;29.70;;;;;;5067164;28;19928;-52
2024/01/31 10:38:13;;;;;;;;;;;24.00;29.80;;;;;;5069129;28;20246;-53
2024/01/31 10:40:42;;;;;;;;;;;24.00;29.80;;;;;;5056281;28;19935;-51
2024/01/31 10:43:10;;;;;;;;;;;24.00;29.70;;;;;;5066800;28;19933;-47
2024/01/31 10:45:37;;;;;;;;;;;24.00;29.70;;;;;;5064125;28;20347;-53
2024/01/31 10:48:05;;;;;;;;;;;24.00;29.70;;;;;;5065533;28;19928;-48
2024/01/31 10:50:32;;;;;;;;;;;24.10;29.70;;;;;;5068841;28;20447;-51
2024/01/31 10:53:02;;;;;;;;;;;24.10;29.70;;;;;;5062801;28;20290;-49
2024/01/31 10:55:29;;;;;;;;;;;24.10;29.70;;;;;;5064963;28;19931;-52
2024/01/31 10:57:57;;;;;;;;;;;24.10;29.60;;;;;;5066015;28;19929;-52
2024/01/31 11:00:25;;;;;;;;;;;24.10;29.60;;;;;;5068565;28;19939;-52
2024/01/31 11:02:53;;;;;;;;;;;24.10;29.60;;;;;;5065926;28;20255;-55
2024/01/31 11:05:22;;;;;;;;;;;24.00;29.60;;;;;;5067658;28;19975;-55
2024/01/31 11:07:50;;;;;;;;;;;24.00;29.60;;;;;;5066311;28;20007;-53
2024/01/31 11:10:20;;;;;;;;;;;24.10;29.70;;;;;;5065462;28;20019;-55
2024/01/31 11:12:59;;;;;;;;;;;24.10;29.80;;;;;;5066326;28;19925;-53
2024/01/31 11:15:30;;;;;;;;;;;24.10;29.80;;;;;;5070406;28;20336;-53
2024/01/31 11:18:06;;;;;;;;;;;24.10;30.30;;;;;;5069079;28;19925;-52
2024/01/31 11:20:35;;;;;;;;;;;24.10;29.80;;;;;;5064469;28;19924;-50
2024/01/31 11:23:05;;;;;;;;;;;24.10;29.60;;;;;;5066413;28;19959;-52
2024/01/31 11:25:34;;;;;;;;;;;24.20;29.50;;;;;;5063128;28;20544;-54
2024/01/31 11:28:03;;;;;;;;;;;24.10;29.40;;;;;;5047790;28;20023;-53
2024/01/31 11:30:31;;;;;;;;;;;24.20;29.30;;;;;;5065988;28;19932;-49
2024/01/31 11:33:02;;;;;;;;;;;24.20;29.30;;;;;;5066220;28;19932;-54
2024/01/31 11:35:30;;;;;;;;;;;24.20;29.30;;;;;;5049159;28;19931;-48
2024/01/31 11:37:57;;;;;;;;;;;24.20;29.20;;;;;;5064074;28;20392;-50
2024/01/31 11:40:24;;;;;;;;;;;24.20;29.20;;;;;;5059711;28;19933;-53
2024/01/31 11:42:52;;;;;;;;;;;24.20;29.30;;;;;;5064806;28;19928;-51
2024/01/31 11:45:21;;;;;;;;;;;24.20;29.30;;;;;;5063192;28;19978;-52
2024/01/31 11:47:49;;;;;;;;;;;24.20;29.30;;;;;;5066635;28;19924;-48
2024/01/31 11:50:18;;;;;;;;;;;24.20;29.30;;;;;;5063158;28;19940;-50
2024/01/31 11:52:46;;;;;;;;;;;24.20;29.30;;;;;;5066047;28;19944;-55
2024/01/31 11:55:13;;;;;;;;;;;24.20;29.30;;;;;;5058380;28;19937;-52
2024/01/31 11:57:40;;;;;;;;;;;24.20;29.30;;;;;;5066401;28;19994;-49
2024/01/31 12:00:07;;;;;;;;;;;24.20;29.80;;;;;;5065816;28;19928;-53
2024/01/31 12:02:36;;;;;;;;;;;24.20;29.40;;;;;;5048860;28;19934;-55
2024/01/31 12:05:03;;;;;;;;;;;24.20;29.20;;;;;;5068763;28;19933;-59
2024/01/31 12:07:33;;;;;;;;;;;24.30;29.50;;;;;;5059914;28;20422;-53
2024/01/31 12:10:00;;;;;;;;;;;24.30;29.60;;;;;;5062388;28;19936;-51
2024/01/31 12:12:28;;;;;;;;;;;24.30;29.70;;;;;;5064234;28;19932;-55
2024/01/31 12:14:55;;;;;;;;;;;24.30;29.70;;;;;;5063521;28;20008;-50
2024/01/31 12:17:25;;;;;;;;;;;24.40;29.90;;;;;;5065849;28;19954;-52
2024/01/31 12:20:10;;;;;;;;;;;24.40;30.00;;;;;;5067200;28;19972;-55
2024/01/31 12:22:38;;;;;;;;;;;24.50;30.10;;;;;;5063950;28;20011;-51
2024/01/31 12:25:05;;;;;;;;;;;24.50;30.20;;;;;;5064646;28;19963;-52
2024/01/31 12:27:33;;;;;;;;;;;24.60;30.20;;;;;;5064584;28;20445;-50
2024/01/31 12:30:00;;;;;;;;;;;24.60;30.10;;;;;;5049145;28;19931;-53
2024/01/31 12:32:27;;;;;;;;;;;24.60;30.00;;;;;;5060272;28;20455;-51
2024/01/31 12:34:54;;;;;;;;;;;24.70;30.00;;;;;;5062684;28;19933;-47
2024/01/31 12:37:21;;;;;;;;;;;24.70;30.00;;;;;;5060617;28;19932;-51
2024/01/31 12:39:48;;;;;;;;;;;24.70;29.90;;;;;;5067041;28;20056;-48
2024/01/31 12:42:16;;;;;;;;;;;24.70;29.70;;;;;;5057639;28;20373;-49
2024/01/31 12:44:43;;;;;;;;;;;24.70;29.60;;;;;;5062204;28;19932;-51
2024/01/31 12:47:10;;;;;;;;;;;24.70;29.50;;;;;;5061143;28;20078;-49
2024/01/31 12:49:43;;;;;;;;;;;24.70;29.30;;;;;;5066412;28;20355;-53
2024/01/31 12:52:11;;;;;;;;;;;24.70;29.20;;;;;;5060945;28;21265;-52
2024/01/31 12:54:38;;;;;;;;;;;24.70;29.30;;;;;;5043671;28;20524;-51
2024/01/31 12:57:07;;;;;;;;;;;24.70;29.40;;;;;;5062298;28;20336;-53
2024/01/31 12:59:34;;;;;;;;;;;24.70;29.40;;;;;;5064530;28;19925;-49
2024/01/31 13:02:01;;;;;;;;;;;24.70;29.40;;;;;;5064007;28;19932;-47
2024/01/31 13:04:28;;;;;;;;;;;24.80;29.40;;;;;;5062456;28;20002;-50
2024/01/31 13:06:56;;;;;;;;;;;24.80;29.40;;;;;;5061363;28;19929;-50
2024/01/31 13:09:23;;;;;;;;;;;24.80;29.40;;;;;;5062240;28;20019;-55
2024/01/31 13:11:50;;;;;;;;;;;24.90;29.50;;;;;;5061645;28;20022;-52
2024/01/31 13:14:18;;;;;;;;;;;24.90;29.60;;;;;;5062330;28;19936;-53
2024/01/31 13:16:45;;;;;;;;;;;24.90;29.80;;;;;;5064450;28;19939;-52
2024/01/31 13:19:27;;;;;;;;;;;24.90;29.90;;;;;;5059726;28;20002;-49
2024/01/31 13:21:54;;;;;;;;;;;25.00;29.80;;;;;;5061619;28;19944;-51
2024/01/31 13:24:21;;;;;;;;;;;25.00;29.70;;;;;;5060125;28;20349;-51
2024/01/31 13:26:48;;;;;;;;;;;25.00;29.60;;;;;;5056261;28;19932;-50
2024/01/31 13:29:18;;;;;;;;;;;24.90;29.50;;;;;;5062437;28;20336;-52
2024/01/31 13:31:46;;;;;;;;;;;24.90;29.40;;;;;;5060106;28;20073;-48
2024/01/31 13:34:13;;;;;;;;;;;24.90;29.20;;;;;;5061139;28;19929;-51
2024/01/31 13:36:41;;;;;;;;;;;24.90;29.20;;;;;;5064857;28;19939;-47
2024/01/31 13:39:08;;;;;;;;;;;24.90;29.20;;;;;;5066800;28;20381;-53
2024/01/31 13:41:38;;;;;;;;;;;24.80;29.10;;;;;;5069144;28;19924;-52
2024/01/31 13:44:05;;;;;;;;;;;24.80;29.10;;;;;;5068371;28;19959;-53
2024/01/31 13:46:32;;;;;;;;;;;24.80;28.90;;;;;;5069218;28;19970;-51
2024/01/31 13:48:59;;;;;;;;;;;24.80;28.90;;;;;;5060642;28;20011;-49
2024/01/31 13:51:26;;;;;;;;;;;24.80;28.80;;;;;;5062799;28;19924;-49
2024/01/31 13:53:54;;;;;;;;;;;24.80;28.80;;;;;;5059428;28;19964;-51
2024/01/31 13:56:21;;;;;;;;;;;24.70;28.70;;;;;;5059656;28;19940;-48
2024/01/31 13:58:48;;;;;;;;;;;24.70;28.70;;;;;;5060287;28;20344;-49
2024/01/31 14:01:15;;;;;;;;;;;24.70;28.70;;;;;;5046811;28;19926;-50
2024/01/31 14:03:42;;;;;;;;;;;24.70;28.80;;;;;;5060844;28;19935;-48
2024/01/31 14:06:09;;;;;;;;;;;24.60;28.80;;;;;;5064001;28;19994;-50
2024/01/31 14:08:39;;;;;;;;;;;24.60;28.80;;;;;;5064921;28;19929;-51
2024/01/31 14:11:06;;;;;;;;;;;24.60;28.80;;;;;;5066714;28;20302;-47
2024/01/31 14:13:33;;;;;;;;;;;24.60;28.80;;;;;;5046292;28;19973;-50
2024/01/31 14:16:00;;;;;;;;;;;24.50;28.80;;;;;;5066726;28;19932;-44
2024/01/31 14:18:26;;;;;;;;;;;24.50;28.70;;;;;;5065388;28;19971;-47